createdAt,value
2022-12-18T00:01:07.346Z,1.98
2022-12-18T00:03:34.847Z,1.86
2022-12-18T00:06:01.675Z,1.80
2022-12-18T00:08:29.059Z,1.79
2022-12-18T00:10:56.114Z,1.79
2022-12-18T00:13:28.365Z,1.59
2022-12-18T00:15:56.721Z,1.68
2022-12-18T00:18:23.466Z,1.58
2022-12-18T00:20:50.063Z,1.65
2022-12-18T00:23:16.719Z,1.63
2022-12-18T00:25:43.331Z,1.64
2022-12-18T00:28:09.946Z,1.80
2022-12-18T00:30:36.660Z,1.70
2022-12-18T00:33:03.317Z,1.60
2022-12-18T00:35:29.957Z,1.57
2022-12-18T00:37:56.550Z,1.56
2022-12-18T00:40:23.163Z,1.60
2022-12-18T00:42:58.951Z,1.50
2022-12-18T00:45:30.818Z,1.60
2022-12-18T00:47:58.186Z,1.66
2022-12-18T00:50:26.630Z,1.86
2022-12-18T00:52:53.330Z,1.78
2022-12-18T00:55:19.954Z,1.79
2022-12-18T00:57:46.706Z,1.62
2022-12-18T01:00:16.098Z,1.60
2022-12-18T01:02:43.206Z,1.52
2022-12-18T01:05:12.256Z,1.57
2022-12-18T01:07:39.055Z,1.61
2022-12-18T01:10:06.635Z,1.67
2022-12-18T01:12:33.686Z,1.47
2022-12-18T01:15:00.421Z,1.49
2022-12-18T01:17:27.061Z,1.49
2022-12-18T01:19:54.514Z,1.54
2022-12-18T01:22:21.152Z,1.34
2022-12-18T01:24:47.703Z,1.32
2022-12-18T01:27:14.515Z,1.39
2022-12-18T01:29:41.112Z,1.41
2022-12-18T01:32:07.958Z,1.50
2022-12-18T01:34:36.104Z,1.55
2022-12-18T01:37:05.067Z,1.61
2022-12-18T01:39:33.036Z,1.71
2022-12-18T01:42:04.030Z,1.50
2022-12-18T01:44:52.288Z,1.46
2022-12-18T01:47:25.449Z,1.50
2022-12-18T01:49:52.650Z,1.27
2022-12-18T01:52:21.247Z,1.36
2022-12-18T01:54:49.961Z,1.17
2022-12-18T01:57:17.149Z,1.29
2022-12-18T01:59:46.396Z,1.13
2022-12-18T02:02:13.719Z,1.04
2022-12-18T02:04:49.156Z,1.06
2022-12-18T02:07:44.681Z,1.03
2022-12-18T02:10:14.091Z,1.01
2022-12-18T02:12:53.923Z,1.14
2022-12-18T02:15:29.853Z,1.28
2022-12-18T02:18:12.132Z,1.08
2022-12-18T02:20:54.591Z,1.05
2022-12-18T02:23:40.199Z,0.97
2022-12-18T02:26:07.245Z,0.97
2022-12-18T02:28:43.599Z,0.96
2022-12-18T02:31:15.383Z,1.08
2022-12-18T02:33:45.327Z,1.22
2022-12-18T02:36:14.541Z,0.99
2022-12-18T02:38:42.618Z,1.03
2022-12-18T02:41:09.311Z,0.86
2022-12-18T02:43:36.063Z,0.82
2022-12-18T02:46:31.097Z,0.92
2022-12-18T02:49:18.879Z,0.82
2022-12-18T02:51:56.505Z,0.77
2022-12-18T02:55:01.772Z,0.74
2022-12-18T02:57:30.961Z,0.74
2022-12-18T03:00:07.035Z,0.83
2022-12-18T03:02:58.411Z,0.78
2022-12-18T03:05:42.887Z,0.79
2022-12-18T03:08:22.869Z,0.86
2022-12-18T03:11:10.539Z,0.77
2022-12-18T03:13:44.662Z,0.79
2022-12-18T03:16:16.284Z,0.80
2022-12-18T03:19:03.812Z,1.00
2022-12-18T03:21:37.963Z,1.06
2022-12-18T03:24:08.684Z,1.05
2022-12-18T03:26:37.672Z,1.09
2022-12-18T03:29:10.137Z,1.18
2022-12-18T03:31:41.073Z,0.91
2022-12-18T03:34:16.251Z,1.02
2022-12-18T03:36:42.901Z,1.03
2022-12-18T03:39:09.605Z,1.06
2022-12-18T03:41:46.143Z,1.06
2022-12-18T03:44:14.965Z,0.93
2022-12-18T03:46:50.623Z,0.80
2022-12-18T03:49:38.689Z,0.94
2022-12-18T03:52:25.521Z,1.06
2022-12-18T03:54:54.341Z,1.07
2022-12-18T03:57:24.004Z,1.06
2022-12-18T03:59:56.377Z,1.04
2022-12-18T04:02:25.669Z,1.04
2022-12-18T04:04:54.832Z,1.04
2022-12-18T04:07:22.371Z,0.97
2022-12-18T04:09:52.139Z,0.99
2022-12-18T04:12:18.779Z,0.92
2022-12-18T04:14:45.918Z,0.89
2022-12-18T04:17:12.765Z,0.84
2022-12-18T04:19:39.631Z,0.92
2022-12-18T04:22:07.636Z,1.00
2022-12-18T04:24:34.247Z,1.04
2022-12-18T04:27:00.870Z,1.10
2022-12-18T04:29:27.403Z,1.02
2022-12-18T04:31:53.989Z,0.93
2022-12-18T04:34:20.849Z,0.99
2022-12-18T04:36:47.578Z,0.90
2022-12-18T04:39:14.724Z,0.74
2022-12-18T04:41:42.192Z,0.86
2022-12-18T04:44:08.890Z,0.89
2022-12-18T04:46:35.712Z,0.86
2022-12-18T04:49:02.483Z,0.88
2022-12-18T04:51:29.101Z,0.79
2022-12-18T04:53:55.788Z,0.76
2022-12-18T04:56:22.697Z,0.79
2022-12-18T04:58:50.020Z,0.85
2022-12-18T05:01:18.670Z,0.85
2022-12-18T05:03:45.703Z,0.80
2022-12-18T05:06:12.546Z,0.76
2022-12-18T05:08:39.345Z,0.69
2022-12-18T05:11:11.743Z,0.82
2022-12-18T05:13:39.405Z,0.91
2022-12-18T05:16:07.327Z,0.85
2022-12-18T05:18:34.289Z,0.71
2022-12-18T05:21:01.350Z,0.76
2022-12-18T05:23:28.698Z,0.57
2022-12-18T05:25:58.691Z,0.60
2022-12-18T05:28:27.437Z,0.69
2022-12-18T05:30:56.641Z,0.77
2022-12-18T05:33:25.554Z,0.70
2022-12-18T05:35:57.240Z,0.83
2022-12-18T05:38:25.513Z,0.89
2022-12-18T05:40:52.881Z,0.89
2022-12-18T05:43:21.506Z,0.79
2022-12-18T05:45:49.286Z,0.79
2022-12-18T05:48:16.561Z,0.80
2022-12-18T05:50:46.557Z,0.84
2022-12-18T05:53:14.146Z,0.84
2022-12-18T05:55:42.513Z,0.86
2022-12-18T05:58:10.795Z,0.82
2022-12-18T06:00:42.331Z,0.70
2022-12-18T06:03:10.674Z,0.71
2022-12-18T06:05:45.533Z,0.73
2022-12-18T06:08:14.216Z,0.73
2022-12-18T06:10:42.103Z,0.56
2022-12-18T06:13:09.043Z,0.41
2022-12-18T06:15:39.975Z,0.43
2022-12-18T06:18:06.718Z,0.60
2022-12-18T06:20:34.216Z,0.44
2022-12-18T06:23:01.282Z,0.39
2022-12-18T06:25:28.170Z,0.49
2022-12-18T06:27:55.146Z,0.54
2022-12-18T06:30:21.770Z,0.46
2022-12-18T06:32:54.623Z,0.54
2022-12-18T06:35:23.395Z,0.55
2022-12-18T06:37:50.075Z,0.54
2022-12-18T06:40:17.326Z,0.47
2022-12-18T06:42:43.950Z,0.29
2022-12-18T06:45:10.927Z,0.27
2022-12-18T06:47:37.541Z,0.26
2022-12-18T06:50:04.505Z,0.12
2022-12-18T06:52:33.162Z,0.08
2022-12-18T06:54:59.853Z,0.04
2022-12-18T06:57:26.500Z,0.21
2022-12-18T06:59:53.576Z,0.32
2022-12-18T07:02:20.281Z,0.21
2022-12-18T07:04:46.860Z,0.13
2022-12-18T07:07:13.490Z,0.06
2022-12-18T07:09:40.040Z,0.16
2022-12-18T07:12:07.907Z,0.19
2022-12-18T07:14:35.288Z,0.16
2022-12-18T07:17:03.055Z,0.11
2022-12-18T07:19:30.746Z,0.25
2022-12-18T07:21:57.856Z,0.26
2022-12-18T07:24:24.723Z,0.36
2022-12-18T07:26:51.333Z,0.31
2022-12-18T07:29:17.954Z,0.43
2022-12-18T07:31:45.124Z,0.41
2022-12-18T07:34:14.160Z,0.29
2022-12-18T07:36:44.227Z,0.38
2022-12-18T07:39:12.343Z,0.56
2022-12-18T07:41:43.756Z,0.55
2022-12-18T07:44:14.199Z,0.60
2022-12-18T07:46:41.503Z,0.60
2022-12-18T07:49:08.168Z,0.65
2022-12-18T07:51:34.758Z,0.62
2022-12-18T07:54:01.391Z,0.66
2022-12-18T07:56:29.420Z,0.71
2022-12-18T07:58:58.109Z,0.76
2022-12-18T08:01:25.411Z,0.55
2022-12-18T08:03:55.169Z,0.44
2022-12-18T08:06:22.756Z,0.46
2022-12-18T08:08:55.510Z,0.60
2022-12-18T08:11:24.188Z,0.58
2022-12-18T08:13:53.774Z,0.58
2022-12-18T08:16:21.005Z,0.68
2022-12-18T08:18:48.344Z,0.76
2022-12-18T08:21:23.871Z,0.79
2022-12-18T08:23:51.685Z,0.52
2022-12-18T08:26:18.871Z,0.52
2022-12-18T08:28:46.064Z,0.68
2022-12-18T08:31:12.796Z,0.69
2022-12-18T08:33:40.720Z,0.74
2022-12-18T08:36:10.148Z,0.68
2022-12-18T08:38:37.195Z,0.69
2022-12-18T08:41:06.940Z,0.67
2022-12-18T08:43:52.136Z,0.60
2022-12-18T08:46:19.738Z,0.36
2022-12-18T08:48:47.009Z,0.33
2022-12-18T08:51:14.029Z,0.40
2022-12-18T08:53:41.195Z,0.63
2022-12-18T08:56:08.659Z,0.74
2022-12-18T08:58:35.271Z,0.74
2022-12-18T09:01:03.193Z,0.77
2022-12-18T09:03:30.270Z,0.82
2022-12-18T09:05:57.200Z,0.67
2022-12-18T09:08:23.890Z,0.52
2022-12-18T09:10:51.457Z,0.71
2022-12-18T09:13:19.435Z,0.58
2022-12-18T09:15:49.006Z,0.51
2022-12-18T09:18:17.447Z,0.66
2022-12-18T09:20:44.708Z,0.82
2022-12-18T09:23:12.295Z,0.69
2022-12-18T09:25:39.848Z,0.80
2022-12-18T09:28:11.366Z,0.88
2022-12-18T09:30:39.931Z,0.78
2022-12-18T09:33:06.846Z,0.69
2022-12-18T09:35:40.573Z,0.71
2022-12-18T09:38:08.009Z,0.91
2022-12-18T09:40:40.722Z,0.89
2022-12-18T09:43:11.835Z,0.74
2022-12-18T09:45:50.493Z,0.81
2022-12-18T09:48:24.845Z,0.66
2022-12-18T09:50:53.448Z,0.71
2022-12-18T09:53:28.986Z,0.75
2022-12-18T09:55:57.472Z,0.78
2022-12-18T09:58:43.538Z,0.62
2022-12-18T10:01:24.186Z,0.59
2022-12-18T10:03:52.608Z,0.74
2022-12-18T10:06:28.153Z,0.86
2022-12-18T10:09:06.229Z,0.56
2022-12-18T10:12:09.549Z,0.50
2022-12-18T10:15:14.690Z,0.68
2022-12-18T10:18:07.891Z,0.54
2022-12-18T10:20:42.439Z,0.78
2022-12-18T10:23:41.391Z,0.79
2022-12-18T10:26:13.078Z,0.80
2022-12-18T10:28:42.283Z,0.71
2022-12-18T10:31:18.129Z,0.97
2022-12-18T10:33:44.953Z,0.94
2022-12-18T10:36:12.386Z,0.98
2022-12-18T10:38:39.729Z,1.05
2022-12-18T10:41:26.966Z,0.89
2022-12-18T10:44:16.954Z,1.08
2022-12-18T10:46:49.038Z,1.11
2022-12-18T10:49:28.335Z,1.12
2022-12-18T10:52:17.169Z,1.15
2022-12-18T10:55:05.306Z,1.09
2022-12-18T10:57:42.648Z,1.05
2022-12-18T11:00:30.579Z,1.01
2022-12-18T11:02:57.867Z,0.97
2022-12-18T11:05:33.396Z,0.98
2022-12-18T11:08:00.846Z,0.91
2022-12-18T11:10:34.597Z,0.95
2022-12-18T11:13:25.932Z,1.06
2022-12-18T11:15:53.216Z,0.69
2022-12-18T11:18:35.607Z,0.59
2022-12-18T11:21:16.587Z,0.38
2022-12-18T11:23:53.772Z,0.64
2022-12-18T11:26:21.281Z,0.68
2022-12-18T11:28:53.150Z,0.71
2022-12-18T11:31:26.404Z,0.81
2022-12-18T11:34:27.652Z,0.74
2022-12-18T11:36:47.589Z,0.61
2022-12-18T11:39:46.085Z,0.60
2022-12-18T11:42:21.181Z,0.88
2022-12-18T11:45:13.794Z,0.92
2022-12-18T11:47:50.133Z,0.93
2022-12-18T11:50:38.426Z,0.96
2022-12-18T11:53:06.409Z,0.93
2022-12-18T11:55:51.374Z,0.91
2022-12-18T11:58:29.367Z,0.91
2022-12-18T12:01:08.166Z,0.90
2022-12-18T12:03:46.916Z,0.84
2022-12-18T12:06:23.531Z,0.84
2022-12-18T12:09:35.095Z,0.86
2022-12-18T12:12:23.168Z,0.87
2022-12-18T12:15:14.127Z,0.93
2022-12-18T12:17:51.380Z,0.87
2022-12-18T12:20:34.765Z,0.85
2022-12-18T12:23:27.703Z,0.89
2022-12-18T12:26:05.082Z,0.87
2022-12-18T12:29:10.898Z,0.87
2022-12-18T12:31:59.021Z,0.84
2022-12-18T12:34:48.776Z,1.03
2022-12-18T12:37:21.284Z,1.02
2022-12-18T12:39:53.219Z,0.94
2022-12-18T12:43:04.525Z,0.93
2022-12-18T12:45:48.686Z,0.84
2022-12-18T12:48:24.173Z,0.78
2022-12-18T12:50:51.469Z,0.73
2022-12-18T12:53:30.500Z,0.83
2022-12-18T12:55:58.614Z,0.74
2022-12-18T12:58:43.435Z,0.76
2022-12-18T13:01:28.525Z,0.83
2022-12-18T13:04:02.170Z,0.82
2022-12-18T13:06:31.527Z,0.80
2022-12-18T13:09:00.324Z,0.74
2022-12-18T13:12:06.790Z,0.73
2022-12-18T13:14:39.898Z,0.71
2022-12-18T13:17:16.873Z,0.65
2022-12-18T13:19:44.281Z,0.72
2022-12-18T13:22:29.712Z,0.69
2022-12-18T13:24:56.432Z,0.81
2022-12-18T13:27:46.936Z,0.80
2022-12-18T13:30:32.493Z,0.77
2022-12-18T13:33:19.384Z,0.76
2022-12-18T13:35:49.017Z,0.69
2022-12-18T13:38:38.210Z,0.69
2022-12-18T13:41:19.944Z,0.52
2022-12-18T13:43:52.727Z,0.36
2022-12-18T13:46:25.437Z,0.34
2022-12-18T13:49:13.739Z,0.44
2022-12-18T13:52:00.545Z,0.47
2022-12-18T13:54:40.071Z,0.55
2022-12-18T13:57:33.971Z,0.49
2022-12-18T14:00:18.201Z,0.34
2022-12-18T14:02:46.747Z,0.37
2022-12-18T14:05:45.771Z,0.27
2022-12-18T14:08:17.751Z,0.18
2022-12-18T14:10:49.038Z,0.27
2022-12-18T14:13:22.387Z,0.32
2022-12-18T14:15:50.238Z,0.29
2022-12-18T14:18:24.744Z,0.30
2022-12-18T14:20:53.324Z,0.28
2022-12-18T14:23:32.327Z,0.36
2022-12-18T14:26:05.349Z,0.34
2022-12-18T14:28:33.092Z,0.38
2022-12-18T14:30:59.965Z,0.40
2022-12-18T14:33:28.860Z,0.37
2022-12-18T14:35:58.959Z,0.31
2022-12-18T14:38:37.460Z,0.38
2022-12-18T14:41:10.492Z,0.32
2022-12-18T14:43:39.292Z,0.18
2022-12-18T14:46:26.903Z,0.20
2022-12-18T14:48:54.557Z,0.11
2022-12-18T14:51:23.881Z,0.20
2022-12-18T14:53:55.668Z,0.21
2022-12-18T14:56:34.862Z,0.20
2022-12-18T15:02:23.218Z,0.28
2022-12-18T15:05:21.673Z,0.21
2022-12-18T15:07:55.338Z,0.10
2022-12-18T15:10:24.872Z,0.13
2022-12-18T15:12:57.693Z,0.04
2022-12-18T15:15:40.665Z,0.12
2022-12-18T15:18:13.426Z,0.15
2022-12-18T15:21:08.043Z,0.00
2022-12-18T15:23:37.860Z,-0.09
2022-12-18T15:26:07.336Z,-0.19
2022-12-18T15:28:57.114Z,-0.25
2022-12-18T15:31:25.565Z,-0.06
2022-12-18T15:33:55.238Z,-0.05
2022-12-18T15:36:26.801Z,0.03
2022-12-18T15:38:56.183Z,0.06
2022-12-18T15:41:35.257Z,0.03
2022-12-18T15:44:03.350Z,-0.05
2022-12-18T15:46:31.877Z,0.07
2022-12-18T15:49:02.388Z,-0.01
2022-12-18T15:51:34.508Z,-0.02
2022-12-18T15:54:04.973Z,0.02
2022-12-18T15:56:57.052Z,0.02
2022-12-18T15:59:24.806Z,0.09
2022-12-18T16:01:54.193Z,0.07
2022-12-18T16:04:22.571Z,0.05
2022-12-18T16:09:37.965Z,-0.11
2022-12-18T16:12:05.668Z,-0.13
2022-12-18T16:14:32.981Z,0.01
2022-12-18T16:17:02.187Z,0.01
2022-12-18T16:19:29.879Z,0.03
2022-12-18T16:21:59.444Z,-0.01
2022-12-18T16:24:31.509Z,-0.12
2022-12-18T16:27:00.376Z,-0.09
2022-12-18T16:29:29.303Z,-0.06
2022-12-18T16:32:00.252Z,-0.03
2022-12-18T16:34:29.554Z,-0.01
2022-12-18T16:37:04.847Z,-0.01
2022-12-18T16:39:33.016Z,-0.11
2022-12-18T16:42:00.097Z,-0.10
2022-12-18T16:44:31.715Z,-0.06
2022-12-18T16:47:02.920Z,-0.21
2022-12-18T16:49:30.423Z,-0.16
2022-12-18T16:51:59.529Z,-0.11
2022-12-18T16:54:26.276Z,-0.18
2022-12-18T16:56:52.962Z,-0.18
2022-12-18T16:59:19.910Z,-0.14
2022-12-18T17:01:47.308Z,-0.16
2022-12-18T17:04:14.736Z,-0.06
2022-12-18T17:06:44.080Z,-0.14
2022-12-18T17:09:16.471Z,-0.12
2022-12-18T17:11:43.854Z,-0.17
2022-12-18T17:14:33.699Z,-0.06
2022-12-18T17:19:47.956Z,-0.04
2022-12-18T17:22:14.582Z,-0.10
2022-12-18T17:24:41.142Z,-0.18
2022-12-18T17:27:08.942Z,-0.15
2022-12-18T17:29:35.735Z,-0.24
2022-12-18T17:32:02.305Z,-0.33
2022-12-18T17:34:30.075Z,-0.26
2022-12-18T17:36:57.484Z,-0.37
2022-12-18T17:39:24.172Z,-0.33
2022-12-18T17:41:50.823Z,-0.27
2022-12-18T17:44:18.591Z,-0.22
2022-12-18T17:46:46.243Z,-0.13
2022-12-18T17:49:14.153Z,-0.09
2022-12-18T17:51:43.071Z,-0.16
2022-12-18T17:54:10.225Z,-0.26
2022-12-18T17:56:37.232Z,-0.11
2022-12-18T17:59:04.323Z,0.02
2022-12-18T18:01:32.506Z,-0.13
2022-12-18T18:04:00.751Z,-0.19
2022-12-18T18:06:27.838Z,-0.33
2022-12-18T18:08:54.908Z,-0.35
2022-12-18T18:11:41.981Z,-0.40
2022-12-18T18:14:14.777Z,-0.39
2022-12-18T18:16:44.155Z,-0.38
2022-12-18T18:19:18.511Z,-0.29
2022-12-18T18:21:47.263Z,-0.28
2022-12-18T18:24:16.793Z,-0.27
2022-12-18T18:26:44.032Z,-0.24
2022-12-18T18:29:19.678Z,-0.12
2022-12-18T18:31:46.852Z,-0.11
2022-12-18T18:34:20.253Z,-0.08
2022-12-18T18:36:46.895Z,0.01
2022-12-18T18:39:14.077Z,-0.02
2022-12-18T18:41:41.132Z,-0.19
2022-12-18T18:44:11.989Z,-0.29
2022-12-18T18:46:38.708Z,-0.25
2022-12-18T18:49:05.752Z,-0.34
2022-12-18T18:51:35.099Z,-0.25
2022-12-18T18:54:02.512Z,-0.08
2022-12-18T18:59:16.377Z,-0.04
2022-12-18T19:01:43.318Z,-0.08
2022-12-18T19:04:10.388Z,-0.03
2022-12-18T19:06:37.068Z,0.05
2022-12-18T19:09:05.094Z,-0.07
2022-12-18T19:11:50.392Z,-0.09
2022-12-18T19:14:17.129Z,-0.28
2022-12-18T19:16:45.518Z,-0.35
2022-12-18T19:19:13.048Z,-0.37
2022-12-18T19:21:39.939Z,-0.37
2022-12-18T19:24:06.883Z,-0.35
2022-12-18T19:26:33.553Z,-0.33
2022-12-18T19:29:08.711Z,-0.37
2022-12-18T19:31:37.162Z,-0.30
2022-12-18T19:34:08.120Z,-0.29
2022-12-18T19:36:37.268Z,-0.31
2022-12-18T19:39:12.412Z,-0.28
2022-12-18T19:41:42.641Z,-0.26
2022-12-18T19:44:12.382Z,-0.31
2022-12-18T19:46:41.706Z,-0.28
2022-12-18T19:49:10.544Z,-0.35
2022-12-18T19:51:41.224Z,-0.25
2022-12-18T19:54:10.029Z,-0.29
2022-12-18T19:56:40.072Z,-0.42
2022-12-18T19:59:06.731Z,-0.34
2022-12-18T20:01:33.687Z,-0.27
2022-12-18T20:04:02.948Z,-0.30
2022-12-18T20:06:45.347Z,-0.21
2022-12-18T20:09:12.206Z,-0.16
2022-12-18T20:11:41.702Z,-0.11
2022-12-18T20:14:12.762Z,-0.17
2022-12-18T20:16:39.721Z,-0.19
2022-12-18T20:19:07.350Z,-0.13
2022-12-18T20:21:34.691Z,-0.11
2022-12-18T20:24:02.252Z,-0.06
2022-12-18T20:26:29.458Z,-0.14
2022-12-18T20:28:56.675Z,-0.23
2022-12-18T20:31:23.912Z,-0.14
2022-12-18T20:33:51.016Z,-0.07
2022-12-18T20:36:22.624Z,-0.05
2022-12-18T20:39:00.500Z,-0.14
2022-12-18T20:41:37.719Z,-0.16
2022-12-18T20:44:53.695Z,-0.15
2022-12-18T20:47:24.938Z,-0.11
2022-12-18T20:49:54.864Z,-0.18
2022-12-18T20:52:22.065Z,-0.25
2022-12-18T20:54:50.385Z,-0.21
2022-12-18T20:57:16.986Z,-0.27
2022-12-18T20:59:48.064Z,-0.15
2022-12-18T21:02:15.252Z,-0.25
2022-12-18T21:04:42.104Z,-0.34
2022-12-18T21:07:08.782Z,-0.30
2022-12-18T21:09:37.451Z,-0.36
2022-12-18T21:12:25.318Z,-0.45
2022-12-18T21:14:51.927Z,-0.46
2022-12-18T21:17:18.552Z,-0.49
2022-12-18T21:19:45.139Z,-0.59
2022-12-18T21:22:12.866Z,-0.64
2022-12-18T21:24:40.246Z,-0.59
2022-12-18T21:27:06.885Z,-0.53
2022-12-18T21:29:34.983Z,-0.56
2022-12-18T21:32:02.415Z,-0.64
2022-12-18T21:34:30.457Z,-0.63
2022-12-18T21:36:59.338Z,-0.54
2022-12-18T21:39:27.450Z,-0.55
2022-12-18T21:42:22.982Z,-0.57
2022-12-18T21:44:52.414Z,-0.56
2022-12-18T21:47:22.620Z,-0.59
2022-12-18T21:49:53.392Z,-0.63
2022-12-18T21:52:31.481Z,-0.62
2022-12-18T21:55:06.190Z,-0.63
2022-12-18T21:57:34.908Z,-0.94
2022-12-18T22:00:02.273Z,-0.89
2022-12-18T22:02:29.232Z,-0.88
2022-12-18T22:04:55.977Z,-0.88
2022-12-18T22:07:23.227Z,-0.86
2022-12-18T22:09:51.111Z,-0.85
2022-12-18T22:12:35.623Z,-0.93
2022-12-18T22:15:04.974Z,-0.94
2022-12-18T22:17:31.569Z,-0.96
2022-12-18T22:19:58.350Z,-0.98
2022-12-18T22:22:24.975Z,-1.01
2022-12-18T22:24:51.677Z,-1.03
2022-12-18T22:27:18.261Z,-1.02
2022-12-18T22:30:03.716Z,-1.08
2022-12-18T22:32:31.841Z,-1.13
2022-12-18T22:35:07.918Z,-1.20
2022-12-18T22:37:37.304Z,-1.25
2022-12-18T22:40:06.091Z,-1.24
2022-12-18T22:42:34.190Z,-1.29
2022-12-18T22:45:00.851Z,-1.32
2022-12-18T22:47:30.165Z,-1.38
2022-12-18T22:49:57.774Z,-1.34
2022-12-18T22:52:24.767Z,-1.30
2022-12-18T22:54:53.394Z,-1.31
2022-12-18T22:57:21.777Z,-1.35
2022-12-18T22:59:49.353Z,-1.36
2022-12-18T23:02:17.817Z,-1.40
2022-12-18T23:04:45.081Z,-1.41
2022-12-18T23:07:12.489Z,-1.46
2022-12-18T23:09:39.964Z,-1.45
2022-12-18T23:12:07.315Z,-1.46
2022-12-18T23:14:33.998Z,-1.54
2022-12-18T23:17:00.651Z,-1.55
2022-12-18T23:19:27.203Z,-1.60
2022-12-18T23:21:54.858Z,-1.61
2022-12-18T23:24:27.251Z,-1.67
2022-12-18T23:26:55.538Z,-1.76
2022-12-18T23:29:22.193Z,-1.76
2022-12-18T23:31:49.048Z,-1.81
2022-12-18T23:34:15.666Z,-1.77
2022-12-18T23:36:45.487Z,-1.86
2022-12-18T23:39:15.473Z,-1.89
2022-12-18T23:41:58.002Z,-1.94
2022-12-18T23:44:24.936Z,-2.03
2022-12-18T23:46:51.615Z,-2.09
2022-12-18T23:49:18.528Z,-2.15
2022-12-18T23:51:45.134Z,-2.18
2022-12-18T23:54:11.757Z,-2.20
2022-12-18T23:56:38.406Z,-2.22
2022-12-18T23:59:05.169Z,-2.23
